createdAt,value
2022-08-20T00:01:36.023Z,7.63
2022-08-20T00:04:02.752Z,7.30
2022-08-20T00:06:29.503Z,8.55
2022-08-20T00:08:56.088Z,8.13
2022-08-20T00:11:25.802Z,7.78
2022-08-20T00:13:58.771Z,7.85
2022-08-20T00:16:28.232Z,7.72
2022-08-20T00:18:55.102Z,7.78
2022-08-20T00:21:23.213Z,8.98
2022-08-20T00:23:52.084Z,7.65
2022-08-20T00:26:20.280Z,7.63
2022-08-20T00:28:47.313Z,7.53
2022-08-20T00:31:19.378Z,7.10
2022-08-20T00:33:47.520Z,8.07
2022-08-20T00:36:17.553Z,8.35
2022-08-20T00:38:46.547Z,6.88
2022-08-20T00:41:18.301Z,7.00
2022-08-20T00:44:05.308Z,7.55
2022-08-20T00:46:32.585Z,7.22
2022-08-20T00:49:01.768Z,6.82
2022-08-20T00:51:41.444Z,7.30
2022-08-20T00:54:16.012Z,7.32
2022-08-20T00:56:45.369Z,6.40
2022-08-20T00:59:18.435Z,5.88
2022-08-20T01:01:55.151Z,5.93
2022-08-20T01:04:33.648Z,5.72
2022-08-20T01:07:01.218Z,5.97
2022-08-20T01:09:50.170Z,5.20
2022-08-20T01:12:16.269Z,6.50
2022-08-20T01:14:45.214Z,6.40
2022-08-20T01:17:17.625Z,6.20
2022-08-20T01:20:10.024Z,6.47
2022-08-20T01:23:01.237Z,6.82
2022-08-20T01:25:48.668Z,7.00
2022-08-20T01:28:19.555Z,5.70
2022-08-20T01:30:46.329Z,7.43
2022-08-20T01:33:13.566Z,5.85
2022-08-20T01:35:42.912Z,4.97
2022-08-20T01:38:09.639Z,5.93
2022-08-20T01:40:44.781Z,6.28
2022-08-20T01:43:12.271Z,6.60
2022-08-20T01:45:40.540Z,6.15
2022-08-20T01:48:08.199Z,6.18
2022-08-20T01:50:39.056Z,6.35
2022-08-20T01:53:22.888Z,5.63
2022-08-20T01:55:49.580Z,6.53
2022-08-20T01:58:16.565Z,5.18
2022-08-20T02:00:43.295Z,6.35
2022-08-20T02:03:09.975Z,5.78
2022-08-20T02:05:36.718Z,5.10
2022-08-20T02:08:04.719Z,6.03
2022-08-20T02:10:31.585Z,5.72
2022-08-20T02:13:00.477Z,6.03
2022-08-20T02:15:34.835Z,4.93
2022-08-20T02:18:11.909Z,5.32
2022-08-20T02:20:40.380Z,5.80
2022-08-20T02:23:08.452Z,5.05
2022-08-20T02:25:37.479Z,5.20
2022-08-20T02:28:07.381Z,4.78
2022-08-20T02:30:38.214Z,4.63
2022-08-20T02:33:09.152Z,4.70
2022-08-20T02:35:37.484Z,4.75
2022-08-20T02:38:04.667Z,4.22
2022-08-20T02:40:31.965Z,4.80
2022-08-20T02:42:59.922Z,5.72
2022-08-20T02:45:27.484Z,4.90
2022-08-20T02:47:56.653Z,4.63
2022-08-20T02:50:25.948Z,3.92
2022-08-20T02:52:52.594Z,4.13
2022-08-20T02:55:26.928Z,4.03
2022-08-20T02:57:59.853Z,4.78
2022-08-20T03:00:32.205Z,4.55
2022-08-20T03:03:10.330Z,4.68
2022-08-20T03:05:40.021Z,4.95
2022-08-20T03:08:09.532Z,5.85
2022-08-20T03:10:38.018Z,4.65
2022-08-20T03:13:06.712Z,4.82
2022-08-20T03:15:34.401Z,4.13
2022-08-20T03:18:01.285Z,3.65
2022-08-20T03:20:28.927Z,4.15
2022-08-20T03:22:55.976Z,5.38
2022-08-20T03:25:23.427Z,5.05
2022-08-20T03:27:54.386Z,4.32
2022-08-20T03:30:22.827Z,4.47
2022-08-20T03:32:49.488Z,5.05
2022-08-20T03:35:17.542Z,5.70
2022-08-20T03:37:48.284Z,5.13
2022-08-20T03:40:22.768Z,3.92
2022-08-20T03:42:50.356Z,3.88
2022-08-20T03:45:20.350Z,3.25
2022-08-20T03:47:48.193Z,4.35
2022-08-20T03:50:23.535Z,4.55
2022-08-20T03:52:52.172Z,5.25
2022-08-20T03:55:19.991Z,4.53
2022-08-20T03:57:52.785Z,5.00
2022-08-20T04:00:42.115Z,4.45
2022-08-20T04:03:09.431Z,5.25
2022-08-20T04:05:40.419Z,4.95
2022-08-20T04:08:14.643Z,5.30
2022-08-20T04:10:41.636Z,5.28
2022-08-20T04:13:09.033Z,5.93
2022-08-20T04:15:37.313Z,4.75
2022-08-20T04:18:07.767Z,5.07
2022-08-20T04:20:36.199Z,5.18
2022-08-20T04:23:03.696Z,6.00
2022-08-20T04:25:35.903Z,4.80
2022-08-20T04:28:05.448Z,5.32
2022-08-20T04:30:33.265Z,5.68
2022-08-20T04:33:00.595Z,5.80
2022-08-20T04:35:28.547Z,5.55
2022-08-20T04:38:04.423Z,5.47
2022-08-20T04:40:49.948Z,6.00
2022-08-20T04:43:16.584Z,6.47
2022-08-20T04:45:44.707Z,4.70
2022-08-20T04:48:15.047Z,6.75
2022-08-20T04:50:43.828Z,4.57
2022-08-20T04:53:12.805Z,5.63
2022-08-20T04:55:42.900Z,5.07
2022-08-20T04:58:12.822Z,5.07
2022-08-20T05:00:39.560Z,5.78
2022-08-20T05:03:07.080Z,4.82
2022-08-20T05:05:35.155Z,5.57
2022-08-20T05:08:02.555Z,5.30
2022-08-20T05:10:30.010Z,6.30
2022-08-20T05:12:57.367Z,5.60
2022-08-20T05:15:26.224Z,5.97
2022-08-20T05:18:00.527Z,6.38
2022-08-20T05:20:31.134Z,6.05
2022-08-20T05:22:59.192Z,5.57
2022-08-20T05:25:31.715Z,5.68
2022-08-20T05:28:05.986Z,6.00
2022-08-20T05:30:34.289Z,6.43
2022-08-20T05:33:03.386Z,6.75
2022-08-20T05:35:34.358Z,6.28
2022-08-20T05:38:02.128Z,7.65
2022-08-20T05:40:28.812Z,6.03
2022-08-20T05:42:55.426Z,6.93
2022-08-20T05:45:22.162Z,6.95
2022-08-20T05:47:49.469Z,6.82
2022-08-20T05:50:23.630Z,6.57
2022-08-20T05:52:50.658Z,6.32
2022-08-20T05:55:17.292Z,7.00
2022-08-20T05:57:45.646Z,7.30
2022-08-20T06:00:14.341Z,7.13
2022-08-20T06:03:00.190Z,6.53
2022-08-20T06:05:27.439Z,6.80
2022-08-20T06:07:54.846Z,6.85
2022-08-20T06:10:34.597Z,8.07
2022-08-20T06:13:02.821Z,7.25
2022-08-20T06:15:30.850Z,7.65
2022-08-20T06:17:58.579Z,7.30
2022-08-20T06:20:26.009Z,6.57
2022-08-20T06:22:52.667Z,6.22
2022-08-20T06:25:19.715Z,7.25
2022-08-20T06:27:46.415Z,6.60
2022-08-20T06:30:15.197Z,7.20
2022-08-20T06:32:41.896Z,7.20
2022-08-20T06:35:10.407Z,6.63
2022-08-20T06:37:41.471Z,7.38
2022-08-20T06:40:14.711Z,8.00
2022-08-20T06:42:48.179Z,6.20
2022-08-20T06:45:19.826Z,7.25
2022-08-20T06:47:47.609Z,7.00
2022-08-20T06:50:18.663Z,7.30
2022-08-20T06:52:52.461Z,6.32
2022-08-20T06:55:30.477Z,6.38
2022-08-20T06:58:05.284Z,6.43
2022-08-20T07:00:33.485Z,6.57
2022-08-20T07:03:01.109Z,6.05
2022-08-20T07:05:29.555Z,5.75
2022-08-20T07:07:56.204Z,5.32
2022-08-20T07:10:30.147Z,5.18
2022-08-20T07:12:59.164Z,5.75
2022-08-20T07:15:26.852Z,5.13
2022-08-20T07:18:01.192Z,4.47
2022-08-20T07:20:29.471Z,4.22
2022-08-20T07:22:56.237Z,3.53
2022-08-20T07:25:23.848Z,3.88
2022-08-20T07:27:51.362Z,3.55
2022-08-20T07:30:56.859Z,3.72
2022-08-20T07:33:25.741Z,3.58
2022-08-20T07:35:56.313Z,2.95
2022-08-20T07:38:25.208Z,3.28
2022-08-20T07:40:53.956Z,2.80
2022-08-20T07:43:23.227Z,2.95
2022-08-20T07:45:57.080Z,2.45
2022-08-20T07:48:27.910Z,2.55
2022-08-20T07:51:00.950Z,2.25
2022-08-20T07:53:30.227Z,2.17
2022-08-20T07:56:00.945Z,2.10
2022-08-20T07:58:29.623Z,2.70
2022-08-20T08:01:00.752Z,2.30
2022-08-20T08:03:37.651Z,2.15
2022-08-20T08:06:28.301Z,2.28
2022-08-20T08:09:02.455Z,2.28
2022-08-20T08:11:29.731Z,3.28
2022-08-20T08:13:56.440Z,2.17
2022-08-20T08:16:23.104Z,3.05
2022-08-20T08:18:56.424Z,1.80
2022-08-20T08:21:23.571Z,1.40
2022-08-20T08:23:50.445Z,1.30
2022-08-20T08:26:19.079Z,1.80
2022-08-20T08:28:46.427Z,1.77
2022-08-20T08:31:13.325Z,1.60
2022-08-20T08:33:40.575Z,1.75
2022-08-20T08:36:16.929Z,1.80
2022-08-20T08:38:45.487Z,2.17
2022-08-20T08:41:33.963Z,1.63
2022-08-20T08:44:12.880Z,2.60
2022-08-20T08:46:42.644Z,1.77
2022-08-20T08:49:13.952Z,2.00
2022-08-20T08:51:52.433Z,2.10
2022-08-20T08:54:22.330Z,1.35
2022-08-20T08:56:49.732Z,1.58
2022-08-20T08:59:17.307Z,1.92
2022-08-20T09:01:56.861Z,1.85
2022-08-20T09:04:37.356Z,1.77
2022-08-20T09:07:08.557Z,2.25
2022-08-20T09:09:38.563Z,1.65
2022-08-20T09:12:08.704Z,1.80
2022-08-20T09:14:36.132Z,1.70
2022-08-20T09:17:03.555Z,1.50
2022-08-20T09:19:30.400Z,1.80
2022-08-20T09:21:57.321Z,1.50
2022-08-20T09:24:24.781Z,1.60
2022-08-20T09:26:51.376Z,1.85
2022-08-20T09:29:18.013Z,1.60
2022-08-20T09:31:44.595Z,1.52
2022-08-20T09:34:13.147Z,1.45
2022-08-20T09:36:39.756Z,2.20
2022-08-20T09:39:06.367Z,1.60
2022-08-20T09:41:33.827Z,1.73
2022-08-20T09:44:01.765Z,1.33
2022-08-20T09:46:28.366Z,1.83
2022-08-20T09:48:57.071Z,1.70
2022-08-20T09:51:23.784Z,1.73
2022-08-20T09:53:50.632Z,1.40
2022-08-20T09:56:17.805Z,2.05
2022-08-20T09:58:50.572Z,1.60
2022-08-20T10:01:18.916Z,1.60
2022-08-20T10:03:50.804Z,1.58
2022-08-20T10:06:20.067Z,1.60
2022-08-20T10:08:47.348Z,1.80
2022-08-20T10:11:14.111Z,2.05
2022-08-20T10:13:40.956Z,2.55
2022-08-20T10:16:07.648Z,2.10
2022-08-20T10:18:36.033Z,2.58
2022-08-20T10:21:03.422Z,2.03
2022-08-20T10:23:30.616Z,2.15
2022-08-20T10:25:57.262Z,1.90
2022-08-20T10:28:23.864Z,2.03
2022-08-20T10:30:50.477Z,1.95
2022-08-20T10:33:17.218Z,1.23
2022-08-20T10:35:43.822Z,1.40
2022-08-20T10:38:10.401Z,1.85
2022-08-20T10:40:36.999Z,1.90
2022-08-20T10:43:03.838Z,1.27
2022-08-20T10:45:30.440Z,1.20
2022-08-20T10:48:00.146Z,1.38
2022-08-20T10:50:30.399Z,1.20
2022-08-20T10:52:58.031Z,0.85
2022-08-20T10:55:24.873Z,1.10
2022-08-20T10:57:51.570Z,0.88
2022-08-20T11:00:19.554Z,0.70
2022-08-20T11:02:46.440Z,1.00
2022-08-20T11:05:13.287Z,1.42
2022-08-20T11:07:59.713Z,0.90
2022-08-20T11:10:29.114Z,0.70
2022-08-20T11:12:55.874Z,0.90
2022-08-20T11:15:22.724Z,0.80
2022-08-20T11:17:49.355Z,1.00
2022-08-20T11:20:19.177Z,0.60
2022-08-20T11:22:46.475Z,0.80
2022-08-20T11:25:13.893Z,0.90
2022-08-20T11:27:44.213Z,1.02
2022-08-20T11:30:14.837Z,1.20
2022-08-20T11:32:41.890Z,0.93
2022-08-20T11:35:38.421Z,0.90
2022-08-20T11:37:57.201Z,0.50
2022-08-20T11:40:24.686Z,1.20
2022-08-20T11:43:13.574Z,1.08
2022-08-20T11:45:38.336Z,1.05
2022-08-20T11:48:05.472Z,0.55
2022-08-20T11:50:32.343Z,0.50
2022-08-20T11:52:59.399Z,0.68
2022-08-20T11:55:30.127Z,1.27
2022-08-20T11:57:57.028Z,0.43
2022-08-20T12:00:33.572Z,0.65
2022-08-20T12:03:08.866Z,0.40
2022-08-20T12:05:38.188Z,0.50
2022-08-20T12:08:05.087Z,1.10
2022-08-20T12:10:32.426Z,0.40
2022-08-20T12:12:59.248Z,0.75
2022-08-20T12:15:27.444Z,0.65
2022-08-20T12:17:54.574Z,0.40
2022-08-20T12:20:22.287Z,0.50
2022-08-20T12:22:49.020Z,0.50
2022-08-20T12:25:15.705Z,0.40
2022-08-20T12:27:42.571Z,0.65
2022-08-20T12:30:15.572Z,0.52
2022-08-20T12:32:42.551Z,0.50
2022-08-20T12:35:11.339Z,0.60
2022-08-20T12:37:38.077Z,0.70
2022-08-20T12:40:08.234Z,1.08
2022-08-20T12:42:34.939Z,0.50
2022-08-20T12:45:02.005Z,0.70
2022-08-20T12:47:32.183Z,0.40
2022-08-20T12:50:07.527Z,0.63
2022-08-20T12:52:34.824Z,0.52
2022-08-20T12:55:02.412Z,0.60
2022-08-20T12:57:43.932Z,0.73
2022-08-20T13:00:14.312Z,0.88
2022-08-20T13:02:41.276Z,0.73
2022-08-20T13:05:12.717Z,0.80
2022-08-20T13:07:40.271Z,0.60
2022-08-20T13:10:09.652Z,0.45
2022-08-20T13:12:36.559Z,0.57
2022-08-20T13:15:04.414Z,0.55
2022-08-20T13:17:38.703Z,0.63
2022-08-20T13:20:10.192Z,0.40
2022-08-20T13:22:38.629Z,0.43
2022-08-20T13:25:06.282Z,0.63
2022-08-20T13:27:32.885Z,0.38
2022-08-20T13:29:59.533Z,0.63
2022-08-20T13:32:26.714Z,0.60
2022-08-20T13:34:53.688Z,0.77
2022-08-20T13:37:27.599Z,0.60
2022-08-20T13:39:55.978Z,0.43
2022-08-20T13:42:22.756Z,0.65
2022-08-20T13:44:49.531Z,0.75
2022-08-20T13:47:25.908Z,0.98
2022-08-20T13:50:01.883Z,0.93
2022-08-20T13:52:28.879Z,0.50
2022-08-20T13:54:55.520Z,0.70
2022-08-20T13:57:24.808Z,0.40
2022-08-20T13:59:54.006Z,0.25
2022-08-20T14:02:21.405Z,0.43
2022-08-20T14:04:49.310Z,0.70
2022-08-20T14:07:22.101Z,0.63
2022-08-20T14:09:54.944Z,0.40
2022-08-20T14:12:24.563Z,0.40
2022-08-20T14:14:52.402Z,0.60
2022-08-20T14:17:32.660Z,0.50
2022-08-20T14:20:02.086Z,0.50
2022-08-20T14:22:29.137Z,0.85
2022-08-20T14:24:56.608Z,0.52
2022-08-20T14:27:26.535Z,0.50
2022-08-20T14:29:57.613Z,0.20
2022-08-20T14:32:24.219Z,0.30
2022-08-20T14:34:50.805Z,0.73
2022-08-20T14:37:25.095Z,0.38
2022-08-20T14:39:54.607Z,0.20
2022-08-20T14:42:23.934Z,0.80
2022-08-20T14:44:51.025Z,0.60
2022-08-20T14:47:20.387Z,0.70
2022-08-20T14:49:48.676Z,0.70
2022-08-20T14:52:17.097Z,0.93
2022-08-20T14:54:45.175Z,0.40
2022-08-20T14:57:14.621Z,0.50
2022-08-20T14:59:42.170Z,0.90
2022-08-20T15:02:12.943Z,0.93
2022-08-20T15:04:41.068Z,0.60
2022-08-20T15:07:16.300Z,0.70
2022-08-20T15:09:43.309Z,0.77
2022-08-20T15:12:09.976Z,0.40
2022-08-20T15:14:39.277Z,0.65
2022-08-20T15:17:06.375Z,0.63
2022-08-20T15:19:33.110Z,0.70
2022-08-20T15:21:59.933Z,0.82
2022-08-20T15:24:26.512Z,0.85
2022-08-20T15:26:53.251Z,0.25
2022-08-20T15:29:22.834Z,0.50
2022-08-20T15:31:50.640Z,0.35
2022-08-20T15:34:18.112Z,0.40
2022-08-20T15:36:45.385Z,0.47
2022-08-20T15:39:12.198Z,0.52
2022-08-20T15:41:38.803Z,0.47
2022-08-20T15:44:05.584Z,0.30
2022-08-20T15:46:36.249Z,0.77
2022-08-20T15:49:04.347Z,0.50
2022-08-20T15:51:43.075Z,0.60
2022-08-20T15:54:24.720Z,2.53
2022-08-20T15:57:02.936Z,0.98
2022-08-20T15:59:59.985Z,1.10
2022-08-20T16:02:45.178Z,0.80
2022-08-20T16:05:33.375Z,1.02
2022-08-20T16:08:34.380Z,0.57
2022-08-20T16:11:05.942Z,0.40
2022-08-20T16:13:49.171Z,0.35
2022-08-20T16:16:30.855Z,0.32
2022-08-20T16:18:59.595Z,0.63
2022-08-20T16:21:36.812Z,0.32
2022-08-20T16:24:05.880Z,0.50
2022-08-20T16:26:32.796Z,0.68
2022-08-20T16:29:11.325Z,0.38
2022-08-20T16:32:05.911Z,0.70
2022-08-20T16:34:44.095Z,0.60
2022-08-20T16:37:22.993Z,0.35
2022-08-20T16:40:00.646Z,0.60
2022-08-20T16:42:34.843Z,0.70
2022-08-20T16:45:05.124Z,0.70
2022-08-20T16:47:35.904Z,1.25
2022-08-20T16:50:15.982Z,1.55
2022-08-20T16:52:44.979Z,1.70
2022-08-20T16:55:12.645Z,0.52
2022-08-20T16:57:39.532Z,0.60
2022-08-20T17:00:12.581Z,0.80
2022-08-20T17:03:00.908Z,0.60
2022-08-20T17:05:37.919Z,0.70
2022-08-20T17:08:07.565Z,0.40
2022-08-20T17:10:52.427Z,0.68
2022-08-20T17:13:28.194Z,0.50
2022-08-20T17:16:07.321Z,0.65
2022-08-20T17:18:37.788Z,0.40
2022-08-20T17:21:16.586Z,0.80
2022-08-20T17:23:55.933Z,0.68
2022-08-20T17:26:40.361Z,0.57
2022-08-20T17:29:15.415Z,0.60
2022-08-20T17:31:45.576Z,1.23
2022-08-20T17:34:22.683Z,0.98
2022-08-20T17:36:58.444Z,0.47
2022-08-20T17:39:28.848Z,0.60
2022-08-20T17:42:09.083Z,0.52
2022-08-20T17:44:43.847Z,0.70
2022-08-20T17:47:16.242Z,0.60
2022-08-20T17:50:02.829Z,0.60
2022-08-20T17:52:47.005Z,0.45
2022-08-20T17:55:13.918Z,0.45
2022-08-20T17:57:44.084Z,0.93
2022-08-20T18:00:15.780Z,0.70
2022-08-20T18:02:43.489Z,0.40
2022-08-20T18:05:17.745Z,0.60
2022-08-20T18:07:59.588Z,0.80
2022-08-20T18:10:27.242Z,0.93
2022-08-20T18:13:28.843Z,0.70
2022-08-20T18:15:57.760Z,0.70
2022-08-20T18:18:56.947Z,1.00
2022-08-20T18:21:54.733Z,0.90
2022-08-20T18:24:48.986Z,0.43
2022-08-20T18:27:21.172Z,0.45
2022-08-20T18:30:01.203Z,0.50
2022-08-20T18:32:35.919Z,0.30
2022-08-20T18:35:17.604Z,0.50
2022-08-20T18:37:44.312Z,0.55
2022-08-20T18:40:18.749Z,0.40
2022-08-20T18:42:46.192Z,0.60
2022-08-20T18:45:13.221Z,0.60
2022-08-20T18:47:46.814Z,0.95
2022-08-20T18:50:18.207Z,0.85
2022-08-20T18:53:05.165Z,0.80
2022-08-20T18:55:41.306Z,0.43
2022-08-20T18:58:11.527Z,0.45
2022-08-20T19:00:43.460Z,0.45
2022-08-20T19:03:14.751Z,0.32
2022-08-20T19:06:22.806Z,0.50
2022-08-20T19:08:56.656Z,0.38
2022-08-20T19:11:46.386Z,1.13
2022-08-20T19:14:40.932Z,0.60
2022-08-20T19:17:16.636Z,0.60
2022-08-20T19:19:43.699Z,0.40
2022-08-20T19:22:16.388Z,0.55
2022-08-20T19:24:44.310Z,0.52
2022-08-20T19:27:12.558Z,0.50
2022-08-20T19:29:50.307Z,0.45
2022-08-20T19:32:27.699Z,0.52
2022-08-20T19:34:57.263Z,0.60
2022-08-20T19:37:38.559Z,0.50
2022-08-20T19:40:26.522Z,0.68
2022-08-20T19:42:57.958Z,0.80
2022-08-20T19:45:28.013Z,0.50
2022-08-20T19:48:06.780Z,0.70
2022-08-20T19:51:16.561Z,0.63
2022-08-20T19:53:48.248Z,0.63
2022-08-20T19:56:21.431Z,0.80
2022-08-20T19:59:15.805Z,0.80
2022-08-20T20:01:52.821Z,0.80
2022-08-20T20:04:19.637Z,0.60
2022-08-20T20:06:48.409Z,0.90
2022-08-20T20:09:25.345Z,0.73
2022-08-20T20:11:57.853Z,0.50
2022-08-20T20:14:29.970Z,0.82
2022-08-20T20:16:58.120Z,0.60
2022-08-20T20:19:27.512Z,0.60
2022-08-20T20:22:22.388Z,0.70
2022-08-20T20:25:00.209Z,0.50
2022-08-20T20:27:28.689Z,1.00
2022-08-20T20:30:11.586Z,0.57
2022-08-20T20:32:47.805Z,0.80
2022-08-20T20:35:31.120Z,0.75
2022-08-20T20:38:02.624Z,1.02
2022-08-20T20:40:43.732Z,0.77
2022-08-20T20:43:22.444Z,0.90
2022-08-20T20:46:19.713Z,0.80
2022-08-20T20:48:49.970Z,1.17
2022-08-20T20:51:24.506Z,1.50
2022-08-20T20:53:54.842Z,0.90
2022-08-20T20:56:37.338Z,0.85
2022-08-20T20:59:07.458Z,1.08
2022-08-20T21:01:48.438Z,1.42
2022-08-20T21:04:16.951Z,1.15
2022-08-20T21:06:44.050Z,1.20
2022-08-20T21:09:10.728Z,1.02
2022-08-20T21:11:37.413Z,1.00
2022-08-20T21:14:04.045Z,1.40
2022-08-20T21:16:30.695Z,1.08
2022-08-20T21:18:58.228Z,0.85
2022-08-20T21:21:24.952Z,0.80
2022-08-20T21:23:51.518Z,0.90
2022-08-20T21:26:18.604Z,1.20
2022-08-20T21:28:45.312Z,1.45
2022-08-20T21:31:12.164Z,1.30
2022-08-20T21:33:38.756Z,1.00
2022-08-20T21:36:06.258Z,1.55
2022-08-20T21:38:32.928Z,1.10
2022-08-20T21:40:59.873Z,0.90
2022-08-20T21:43:26.698Z,0.90
2022-08-20T21:45:53.672Z,1.02
2022-08-20T21:48:20.501Z,0.90
2022-08-20T21:50:47.160Z,1.63
2022-08-20T21:53:13.802Z,1.20
2022-08-20T21:55:41.043Z,1.13
2022-08-20T21:58:09.299Z,0.93
2022-08-20T22:00:57.705Z,1.35
2022-08-20T22:03:32.003Z,1.20
2022-08-20T22:06:00.097Z,1.20
2022-08-20T22:08:28.384Z,1.17
2022-08-20T22:10:57.047Z,1.20
2022-08-20T22:13:25.839Z,1.17
2022-08-20T22:15:52.612Z,1.15
2022-08-20T22:18:19.228Z,1.30
2022-08-20T22:20:45.971Z,1.08
2022-08-20T22:23:12.598Z,1.10
2022-08-20T22:25:40.424Z,1.00
2022-08-20T22:28:08.077Z,1.25
2022-08-20T22:30:35.619Z,0.90
2022-08-20T22:33:08.631Z,1.33
2022-08-20T22:35:35.440Z,0.90
2022-08-20T22:38:02.080Z,1.08
2022-08-20T22:40:28.820Z,1.17
2022-08-20T22:42:55.431Z,0.90
2022-08-20T22:45:22.283Z,0.80
2022-08-20T22:47:48.888Z,0.85
2022-08-20T22:50:17.617Z,1.10
2022-08-20T22:52:45.280Z,1.08
2022-08-20T22:55:12.192Z,0.90
2022-08-20T22:57:38.952Z,0.95
2022-08-20T23:00:10.136Z,1.38
2022-08-20T23:02:36.908Z,1.30
2022-08-20T23:05:04.273Z,1.60
2022-08-20T23:07:31.051Z,1.33
2022-08-20T23:09:57.648Z,1.42
2022-08-20T23:12:24.302Z,1.20
2022-08-20T23:14:52.525Z,1.30
2022-08-20T23:17:19.456Z,1.52
2022-08-20T23:19:48.415Z,1.10
2022-08-20T23:22:15.078Z,1.02
2022-08-20T23:24:42.018Z,1.30
2022-08-20T23:27:10.106Z,1.23
2022-08-20T23:29:36.788Z,1.10
2022-08-20T23:32:04.021Z,1.08
2022-08-20T23:34:30.636Z,1.45
2022-08-20T23:36:57.941Z,0.98
2022-08-20T23:39:26.083Z,1.45
2022-08-20T23:41:53.226Z,1.38
2022-08-20T23:44:26.614Z,1.15
2022-08-20T23:46:56.348Z,1.08
2022-08-20T23:49:22.986Z,1.20
2022-08-20T23:51:49.584Z,1.70
2022-08-20T23:54:16.187Z,1.20
2022-08-20T23:56:42.791Z,1.30
2022-08-20T23:59:09.427Z,1.10
